Time;durP1;ratioP1;P1;durP2;ratioP2;P2;SDS_P1;SDS_P2;PMS_P1;PMS_P2;Temp;Humidity;BMP_temperature;BMP_pressure;BME280_temperature;BME280_humidity;BME280_pressure;Samples;Min_cycle;Max_cycle;Signal;HPM_P1;HPM_P2
2022/08/19 00:00:08;;;;;;;6.60;4.47;;;;;;;23.51;46.52;95201.72;5029062;28;20108;-84
2022/08/19 00:02:34;;;;;;;17.15;4.78;;;;;;;23.46;46.36;95186.09;5028623;28;20048;-84
2022/08/19 00:04:59;;;;;;;7.22;4.72;;;;;;;23.45;46.63;95193.50;5028956;28;20045;-85
2022/08/19 00:07:24;;;;;;;8.70;4.30;;;;;;;23.43;46.87;95209.34;5028371;28;20040;-85
2022/08/19 00:09:50;;;;;;;5.18;3.85;;;;;;;23.43;46.29;95205.78;5028523;28;20025;-85
2022/08/19 00:12:15;;;;;;;7.13;4.80;;;;;;;23.38;46.92;95205.72;5028183;28;20033;-85
2022/08/19 00:14:41;;;;;;;6.80;3.85;;;;;;;23.39;47.20;95204.66;5028904;28;20033;-86
2022/08/19 00:17:07;;;;;;;6.50;4.18;;;;;;;23.40;46.56;95211.78;5027922;28;20037;-85
2022/08/19 00:19:32;;;;;;;4.80;4.07;;;;;;;23.33;47.49;95211.97;5028521;28;20057;-85
2022/08/19 00:21:58;;;;;;;5.28;4.50;;;;;;;23.33;47.33;95214.72;5028083;28;20484;-82
2022/08/19 00:24:23;;;;;;;5.13;4.45;;;;;;;23.27;47.73;95213.88;5028370;28;20013;-85
2022/08/19 00:26:50;;;;;;;5.53;4.20;;;;;;;23.25;47.85;95216.03;5028148;28;20503;-84
2022/08/19 00:29:18;;;;;;;4.60;3.85;;;;;;;23.23;47.35;95214.66;5027831;28;20021;-84
2022/08/19 00:31:44;;;;;;;4.38;3.97;;;;;;;23.20;47.38;95216.00;5028429;28;20500;-84
2022/08/19 00:34:10;;;;;;;5.78;4.22;;;;;;;23.16;47.55;95212.16;5027859;28;20102;-84
2022/08/19 00:36:37;;;;;;;4.13;3.65;;;;;;;23.17;47.73;95216.53;5028732;28;20025;-84
2022/08/19 00:39:02;;;;;;;5.10;3.75;;;;;;;23.13;47.49;95201.72;5026701;28;20034;-84
2022/08/19 00:41:28;;;;;;;8.00;4.85;;;;;;;23.05;48.05;95201.13;5028334;28;20048;-84
2022/08/19 00:44:14;;;;;;;5.63;4.13;;;;;;;22.99;47.79;95207.63;5028278;28;20091;-85
2022/08/19 00:46:42;;;;;;;8.50;3.70;;;;;;;22.99;47.79;95204.09;5027475;28;20032;-85
2022/08/19 00:49:16;;;;;;;5.00;4.45;;;;;;;22.96;48.32;95203.53;5027789;28;20026;-84
2022/08/19 00:51:42;;;;;;;5.60;4.20;;;;;;;22.92;48.21;95202.41;5026254;28;20033;-84
2022/08/19 00:54:08;;;;;;;10.38;4.45;;;;;;;22.97;48.37;95199.69;5026611;28;20400;-84
2022/08/19 00:56:35;;;;;;;5.10;4.30;;;;;;;22.98;48.07;95206.00;5028051;28;20026;-85
2022/08/19 00:59:01;;;;;;;5.38;4.13;;;;;;;22.93;47.79;95201.31;5025951;28;20033;-85
2022/08/19 01:01:26;;;;;;;7.72;4.28;;;;;;;22.93;47.22;95198.59;5009829;28;20579;-85
2022/08/19 01:03:52;;;;;;;11.18;4.90;;;;;;;22.83;47.46;95202.06;5027038;28;20029;-84
2022/08/19 01:06:17;;;;;;;6.47;4.65;;;;;;;22.84;48.20;95203.69;5026150;28;20512;-85
2022/08/19 01:08:43;;;;;;;7.13;5.55;;;;;;;22.86;48.25;95208.09;5025864;28;20476;-84
2022/08/19 01:11:08;;;;;;;6.10;4.72;;;;;;;22.84;48.22;95195.50;5026047;28;20029;-83
2022/08/19 01:13:34;;;;;;;5.25;4.68;;;;;;;22.81;48.74;95198.75;5027302;28;20037;-84
2022/08/19 01:16:02;;;;;;;9.13;5.07;;;;;;;22.79;48.21;95203.69;5026177;28;20029;-85
2022/08/19 01:18:28;;;;;;;7.18;5.00;;;;;;;22.78;48.41;95201.22;5026236;28;20026;-85
2022/08/19 01:20:55;;;;;;;8.15;5.90;;;;;;;22.70;49.20;95203.31;5025762;28;20095;-85
2022/08/19 01:23:20;;;;;;;6.75;5.20;;;;;;;22.70;48.94;95206.06;5009397;28;20061;-85
2022/08/19 01:25:50;;;;;;;8.90;5.03;;;;;;;22.65;49.18;95191.53;5026959;28;20018;-85
2022/08/19 01:28:17;;;;;;;6.75;5.30;;;;;;;22.65;48.51;95202.47;5027429;28;20040;-84
2022/08/19 01:30:43;;;;;;;7.93;5.68;;;;;;;22.62;49.10;95192.84;5026813;28;20025;-86
2022/08/19 01:33:08;;;;;;;9.40;5.25;;;;;;;22.56;49.02;95197.44;5027267;28;20071;-86
2022/08/19 01:35:34;;;;;;;6.45;5.05;;;;;;;22.55;49.89;95195.81;5027448;28;20028;-84
2022/08/19 01:38:02;;;;;;;7.22;5.60;;;;;;;22.51;49.53;95197.38;5026565;28;20033;-85
2022/08/19 01:40:30;;;;;;;9.52;6.00;;;;;;;22.46;50.22;95200.91;5027221;28;20056;-85
2022/08/19 01:42:56;;;;;;;6.68;5.68;;;;;;;22.40;50.02;95201.09;5026811;28;20029;-85
2022/08/19 01:45:22;;;;;;;6.18;5.57;;;;;;;22.46;49.86;95197.31;5027207;28;20024;-84
2022/08/19 01:47:47;;;;;;;7.93;5.00;;;;;;;22.41;49.64;95202.75;5027085;28;20108;-85
2022/08/19 01:50:13;;;;;;;7.55;5.00;;;;;;;22.38;49.47;95208.72;5027143;28;20504;-84
2022/08/19 01:52:40;;;;;;;7.50;5.30;;;;;;;22.35;50.13;95205.44;5026761;28;20017;-85
2022/08/19 01:55:06;;;;;;;11.40;5.03;;;;;;;22.37;49.39;95212.53;5027093;28;20112;-85
2022/08/19 01:57:32;;;;;;;8.00;5.15;;;;;;;22.29;49.87;95208.38;5026961;28;20108;-85
2022/08/19 01:59:57;;;;;;;5.85;5.25;;;;;;;22.29;49.57;95211.94;5025777;28;20467;-85
2022/08/19 02:02:23;;;;;;;7.40;5.57;;;;;;;22.23;50.18;95213.78;5025733;28;20033;-84
2022/08/19 02:04:49;;;;;;;7.35;6.05;;;;;;;22.28;49.78;95215.72;5026380;28;20028;-84
2022/08/19 02:07:14;;;;;;;7.43;5.82;;;;;;;22.30;50.06;95220.94;5026839;28;20025;-84
2022/08/19 02:09:39;;;;;;;6.40;4.97;;;;;;;22.28;49.32;95212.19;5025763;28;20029;-84
2022/08/19 02:12:07;;;;;;;6.25;4.72;;;;;;;22.27;50.09;95213.25;5026651;28;20028;-84
2022/08/19 02:14:34;;;;;;;5.47;4.85;;;;;;;22.15;50.11;95200.56;5025778;28;20056;-88
2022/08/19 02:16:59;;;;;;;9.73;6.22;;;;;;;22.21;50.26;95204.19;5026580;28;20054;-84
2022/08/19 02:19:25;;;;;;;7.00;5.50;;;;;;;22.18;50.55;95210.19;5026572;28;20038;-84
2022/08/19 02:21:50;;;;;;;6.60;5.32;;;;;;;22.10;50.93;95206.00;5026120;28;20045;-86
2022/08/19 02:24:16;;;;;;;7.07;5.65;;;;;;;22.13;50.49;95204.66;5026515;28;20041;-84
2022/08/19 02:26:41;;;;;;;6.88;6.00;;;;;;;22.10;50.40;95206.81;5025690;28;20031;-85
2022/08/19 02:29:07;;;;;;;7.97;5.63;;;;;;;22.10;50.65;95206.81;5026400;28;20025;-85
2022/08/19 02:31:33;;;;;;;13.10;6.25;;;;;;;22.04;50.78;95205.09;5025657;28;20064;-86
2022/08/19 02:33:58;;;;;;;8.98;5.63;;;;;;;22.01;50.66;95202.88;5026532;28;20028;-85
2022/08/19 02:36:24;;;;;;;8.20;5.57;;;;;;;22.05;51.03;95216.88;5026469;28;20041;-86
2022/08/19 02:38:49;;;;;;;9.15;6.22;;;;;;;21.97;51.29;95199.84;5025818;28;20029;-85
2022/08/19 02:41:23;;;;;;;10.27;5.28;;;;;;;22.01;51.38;95208.34;5026286;28;20022;-85
2022/08/19 02:43:49;;;;;;;7.80;6.25;;;;;;;21.93;51.46;95214.25;5025691;28;20096;-85
2022/08/19 02:46:21;;;;;;;13.23;6.13;;;;;;;21.83;51.39;95218.50;5026150;28;20065;-86
2022/08/19 02:48:52;;;;;;;11.93;6.70;;;;;;;21.78;51.08;95212.19;5026041;28;20453;-86
2022/08/19 02:51:27;;;;;;;6.85;6.13;;;;;;;21.67;51.39;95205.72;5027060;28;20029;-84
2022/08/19 02:53:53;;;;;;;9.70;6.55;;;;;;;21.70;51.49;95221.63;5028874;28;20030;-85
2022/08/19 02:56:19;;;;;;;8.43;5.75;;;;;;;21.66;51.67;95221.28;5033987;28;20056;-85
2022/08/19 02:58:44;;;;;;;10.68;6.30;;;;;;;21.67;51.84;95222.09;5040122;28;20030;-85
2022/08/19 03:01:10;;;;;;;8.00;6.00;;;;;;;21.66;51.83;95212.25;5036569;28;20083;-83
2022/08/19 03:03:36;;;;;;;8.38;6.13;;;;;;;21.63;52.44;95216.34;5028532;28;20025;-85
2022/08/19 03:06:06;;;;;;;9.25;6.47;;;;;;;21.57;51.88;95212.69;5026188;28;20037;-84
2022/08/19 03:08:32;;;;;;;7.50;6.30;;;;;;;21.48;51.87;95204.13;5026732;28;20501;-85
2022/08/19 03:10:57;;;;;;;8.48;6.15;;;;;;;21.46;51.76;95206.28;5040919;28;20037;-84
2022/08/19 03:13:23;;;;;;;12.45;7.10;;;;;;;21.34;52.47;95200.97;5026989;28;20508;-84
2022/08/19 03:15:49;;;;;;;10.55;7.30;;;;;;;21.31;51.83;95204.16;5026292;28;20412;-84
2022/08/19 03:18:14;;;;;;;8.23;7.18;;;;;;;21.28;52.43;95204.66;5027056;28;20025;-86
2022/08/19 03:20:42;;;;;;;12.15;6.72;;;;;;;21.30;52.07;95207.97;5026304;28;20044;-84
2022/08/19 03:23:07;;;;;;;11.68;6.90;;;;;;;21.32;52.59;95211.28;5026543;28;20049;-83
2022/08/19 03:25:37;;;;;;;8.85;6.78;;;;;;;21.35;52.54;95221.69;5028809;28;20079;-83
2022/08/19 03:28:03;;;;;;;9.90;6.50;;;;;;;21.34;52.62;95220.06;5029306;28;20021;-83
2022/08/19 03:30:28;;;;;;;7.78;6.35;;;;;;;21.36;52.76;95212.41;5029918;28;20115;-84
2022/08/19 03:32:54;;;;;;;7.30;5.70;;;;;;;21.33;52.53;95229.28;5029307;28;20386;-86
2022/08/19 03:35:20;;;;;;;10.00;5.93;;;;;;;21.41;52.44;95221.78;5028764;28;20424;-85
2022/08/19 03:37:45;;;;;;;9.20;6.40;;;;;;;21.48;52.40;95222.41;5029950;28;20512;-87
2022/08/19 03:40:10;;;;;;;10.05;6.60;;;;;;;21.48;52.25;95214.22;5029528;28;20508;-84
2022/08/19 03:42:36;;;;;;;10.27;6.25;;;;;;;21.54;52.46;95224.13;5030430;28;20025;-86
2022/08/19 03:45:02;;;;;;;8.43;6.15;;;;;;;21.50;51.99;95222.97;5029548;28;20538;-84
2022/08/19 03:47:27;;;;;;;9.82;6.82;;;;;;;21.42;51.94;95237.88;5032190;28;20061;-83
2022/08/19 03:49:53;;;;;;;9.02;6.20;;;;;;;21.39;52.13;95243.00;5038578;28;20029;-84
2022/08/19 03:52:18;;;;;;;13.35;6.82;;;;;;;21.34;52.55;95244.59;5030111;28;20033;-84
2022/08/19 03:54:44;;;;;;;12.60;6.57;;;;;;;21.30;52.69;95240.69;5033070;28;20025;-83
2022/08/19 03:57:10;;;;;;;12.60;6.43;;;;;;;21.22;52.88;95241.13;5039654;28;20056;-86
2022/08/19 03:59:36;;;;;;;10.35;6.90;;;;;;;21.13;53.44;95243.47;5039176;28;20033;-83
2022/08/19 04:02:03;;;;;;;10.90;6.88;;;;;;;21.15;53.39;95245.94;5034133;28;20085;-85
2022/08/19 04:04:29;;;;;;;8.43;6.30;;;;;;;21.18;53.65;95251.72;5033187;28;20034;-86
2022/08/19 04:06:54;;;;;;;15.35;7.60;;;;;;;21.15;53.14;95252.19;5038033;28;20021;-85
2022/08/19 04:09:20;;;;;;;10.68;6.78;;;;;;;21.11;53.58;95248.31;5035469;28;20026;-85
2022/08/19 04:11:47;;;;;;;11.13;6.40;;;;;;;21.08;53.34;95249.66;5029301;28;20059;-84
2022/08/19 04:14:15;;;;;;;10.85;6.47;;;;;;;21.17;53.00;95246.50;5032889;28;20108;-84
2022/08/19 04:16:42;;;;;;;8.90;6.35;;;;;;;21.16;53.13;95258.47;5040366;28;20048;-84
2022/08/19 04:19:07;;;;;;;12.52;6.60;;;;;;;21.18;53.13;95250.88;5032273;28;20531;-84
2022/08/19 04:21:33;;;;;;;9.45;6.43;;;;;;;21.22;52.96;95260.22;5029263;28;20029;-85
2022/08/19 04:23:59;;;;;;;14.70;6.75;;;;;;;21.23;52.90;95259.97;5028534;28;20046;-84
2022/08/19 04:26:31;;;;;;;14.98;7.07;;;;;;;21.27;53.16;95260.28;5029431;28;20022;-85
2022/08/19 04:28:57;;;;;;;14.77;6.68;;;;;;;21.31;53.19;95258.72;5029205;28;20098;-85
2022/08/19 04:31:27;;;;;;;18.35;8.00;;;;;;;21.30;52.89;95262.53;5028742;28;20080;-84
2022/08/19 04:33:54;;;;;;;13.43;7.00;;;;;;;21.30;53.11;95265.25;5028366;28;20057;-86
2022/08/19 04:36:30;;;;;;;17.50;6.97;;;;;;;21.35;53.09;95270.78;5027761;28;20025;-85
2022/08/19 04:38:57;;;;;;;11.95;6.65;;;;;;;21.40;52.80;95267.31;5028662;28;20025;-85
2022/08/19 04:44:06;;;;;;;19.70;7.47;;;;;;;21.63;52.13;95264.63;5028579;28;20087;-85
2022/08/19 04:46:32;;;;;;;17.02;7.03;;;;;;;21.61;51.73;95270.31;5028031;28;20025;-85
2022/08/19 04:48:58;;;;;;;16.42;7.45;;;;;;;21.62;51.61;95266.50;5028505;28;20163;-84
2022/08/19 04:51:24;;;;;;;16.67;6.90;;;;;;;21.57;51.68;95267.25;5027547;28;20033;-85
2022/08/19 04:53:50;;;;;;;12.15;7.07;;;;;;;21.65;51.34;95267.94;5028107;28;20029;-83
2022/08/19 04:56:16;;;;;;;18.52;6.47;;;;;;;21.69;51.79;95264.44;5027769;28;20048;-84
2022/08/19 04:58:43;;;;;;;9.07;6.00;;;;;;;21.79;51.14;95260.22;5028155;28;20060;-83
2022/08/19 05:01:11;;;;;;;10.80;6.38;;;;;;;21.93;50.57;95263.38;5027836;28;20029;-84
2022/08/19 05:03:37;;;;;;;14.82;6.55;;;;;;;22.05;50.80;95266.00;5026115;28;20021;-84
2022/08/19 05:06:07;;;;;;;13.23;6.45;;;;;;;22.08;50.13;95262.75;5027928;28;20037;-83
2022/08/19 05:08:33;;;;;;;12.35;6.53;;;;;;;22.11;50.25;95270.44;5027305;28;20112;-83
2022/08/19 05:10:59;;;;;;;11.60;6.60;;;;;;;22.16;50.55;95266.94;5028226;28;20022;-84
2022/08/19 05:13:25;;;;;;;23.27;7.28;;;;;;;22.13;50.86;95267.47;5028122;28;20618;-84
2022/08/19 05:15:57;;;;;;;31.75;9.80;;;;;;;22.18;50.42;95273.00;5027824;28;20024;-84
2022/08/19 05:23:55;;;;;;;42.72;9.85;;;;;;;22.20;51.03;95281.72;5028104;28;20556;-84
2022/08/19 05:26:21;;;;;;;21.90;8.40;;;;;;;22.37;50.54;95283.56;5027209;28;20493;-84
2022/08/19 05:28:47;;;;;;;44.00;8.90;;;;;;;22.48;50.16;95282.59;5027880;28;20029;-84
2022/08/19 05:31:12;;;;;;;25.23;7.88;;;;;;;22.64;50.25;95280.88;5027633;28;20048;-84
2022/08/19 05:33:39;;;;;;;22.48;8.77;;;;;;;22.77;49.81;95285.13;5027015;28;20087;-84
2022/08/19 05:36:07;;;;;;;23.38;7.40;;;;;;;22.88;49.45;95275.09;5027512;28;20032;-84
2022/08/19 05:38:33;;;;;;;18.75;7.07;;;;;;;22.97;49.06;95275.47;5026725;28;20387;-85
2022/08/19 05:40:58;;;;;;;19.20;7.78;;;;;;;23.07;48.86;95277.47;5027218;28;20484;-84
2022/08/19 05:43:25;;;;;;;28.88;8.68;;;;;;;23.25;48.58;95269.94;5026570;28;20018;-84
2022/08/19 05:45:50;;;;;;;25.63;7.47;;;;;;;23.39;48.39;95276.63;5027260;28;20040;-85
2022/08/19 05:48:17;;;;;;;20.00;8.27;;;;;;;23.45;48.13;95274.75;5026282;28;20400;-85
2022/08/19 05:50:44;;;;;;;29.80;7.90;;;;;;;23.43;48.06;95279.66;5026490;28;20040;-85
2022/08/19 05:53:09;;;;;;;21.70;8.52;;;;;;;23.45;48.59;95280.22;5025760;28;20033;-83
2022/08/19 05:55:36;;;;;;;27.23;8.80;;;;;;;23.46;48.05;95277.22;5026289;28;20045;-84
2022/08/19 05:58:02;;;;;;;17.85;7.65;;;;;;;23.60;48.35;95275.94;5026868;28;20397;-83
2022/08/19 06:00:27;;;;;;;28.90;7.97;;;;;;;23.74;48.23;95277.13;5026328;28;20507;-82
2022/08/19 06:02:56;;;;;;;12.05;7.03;;;;;;;23.81;47.62;95274.97;5027090;28;20022;-83
2022/08/19 06:05:21;;;;;;;10.98;6.78;;;;;;;23.79;47.68;95277.16;5026649;28;20547;-84
2022/08/19 06:07:47;;;;;;;10.55;7.10;;;;;;;23.89;47.44;95276.38;5026228;28;20144;-84
2022/08/19 06:10:12;;;;;;;9.30;6.80;;;;;;;24.00;47.38;95277.25;5026760;28;20029;-83
2022/08/19 06:12:38;;;;;;;10.02;6.88;;;;;;;24.08;47.15;95270.44;5026171;28;20025;-84
2022/08/19 06:15:06;;;;;;;7.63;6.47;;;;;;;24.12;47.13;95277.03;5026689;28;20029;-85
2022/08/19 06:17:34;;;;;;;8.80;6.10;;;;;;;24.18;46.52;95280.66;5025913;28;20347;-85
2022/08/19 06:19:59;;;;;;;9.15;5.80;;;;;;;24.31;45.98;95280.13;5026398;28;20094;-84
2022/08/19 06:22:25;;;;;;;9.98;5.72;;;;;;;24.34;45.81;95277.97;5025962;28;20053;-84
2022/08/19 06:24:52;;;;;;;13.73;6.93;;;;;;;24.56;45.95;95278.56;5026459;28;20801;-84
2022/08/19 06:27:18;;;;;;;7.97;5.97;;;;;;;24.69;45.36;95276.41;5026283;28;20500;-85
2022/08/19 06:29:46;;;;;;;11.90;6.35;;;;;;;24.79;44.71;95273.69;5026033;28;20093;-85
2022/08/19 06:32:12;;;;;;;16.20;6.00;;;;;;;24.91;43.97;95280.84;5026741;28;20029;-84
2022/08/19 06:34:37;;;;;;;11.45;5.97;;;;;;;24.99;43.36;95280.31;5025409;28;20026;-83
2022/08/19 06:37:05;;;;;;;9.65;5.85;;;;;;;25.14;42.90;95281.41;5026075;28;20480;-84
2022/08/19 06:39:32;;;;;;;9.98;5.80;;;;;;;25.12;43.80;95275.34;5025467;28;20033;-83
2022/08/19 06:41:59;;;;;;;13.63;6.40;;;;;;;25.10;43.79;95278.38;5025750;28;20647;-84
2022/08/19 06:44:27;;;;;;;21.70;7.25;;;;;;;25.27;43.63;95272.63;5026535;28;20018;-84
2022/08/19 06:46:53;;;;;;;24.23;7.50;;;;;;;25.20;44.04;95283.03;5025733;28;20022;-84
2022/08/19 06:49:19;;;;;;;24.38;7.03;;;;;;;25.39;44.10;95279.75;5026294;28;20053;-84
2022/08/19 06:51:47;;;;;;;31.70;7.75;;;;;;;25.60;43.55;95271.50;5025324;28;20030;-83
2022/08/19 06:54:13;;;;;;;34.00;7.88;;;;;;;25.53;43.77;95267.13;5025692;28;20053;-84
2022/08/19 06:56:38;;;;;;;19.40;7.20;;;;;;;25.74;43.86;95269.03;5025411;28;20068;-85
2022/08/19 06:59:07;;;;;;;19.65;6.45;;;;;;;25.76;42.19;95275.06;5026169;28;20091;-84
2022/08/19 07:01:45;;;;;;;19.65;7.70;;;;;;;25.58;42.79;95282.75;5029288;28;20025;-84
2022/08/19 07:04:11;;;;;;;18.65;6.90;;;;;;;25.57;43.08;95274.81;5029749;28;20434;-84
2022/08/19 07:06:36;;;;;;;23.67;6.90;;;;;;;25.51;42.96;95277.53;5029826;28;20025;-83
2022/08/19 07:09:04;;;;;;;17.70;6.15;;;;;;;25.58;43.19;95285.50;5029080;28;20472;-84
2022/08/19 07:11:30;;;;;;;11.15;6.07;;;;;;;25.66;43.53;95279.50;5029677;28;20036;-84
2022/08/19 07:13:55;;;;;;;25.70;6.70;;;;;;;25.79;42.70;95280.81;5028776;28;20029;-82
2022/08/19 07:16:21;;;;;;;31.60;7.78;;;;;;;25.87;42.60;95278.59;5029647;28;20029;-84
2022/08/19 07:18:48;;;;;;;14.70;6.07;;;;;;;26.12;42.50;95276.84;5029880;28;20026;-83
2022/08/19 07:21:21;;;;;;;11.18;5.93;;;;;;;26.24;42.75;95277.38;5029445;28;20021;-83
2022/08/19 07:23:46;;;;;;;;;;;;;;;26.43;42.53;95279.50;5029950;28;20069;-83
2022/08/19 07:26:13;;;;;;;8.95;6.15;;;;;;;26.45;42.21;95282.81;5029214;28;19959;-84
2022/08/19 07:28:38;;;;;;;14.30;5.43;;;;;;;26.41;42.89;95271.53;5029701;28;20499;-84
2022/08/19 07:31:07;;;;;;;7.60;5.70;;;;;;;26.47;41.46;95275.06;5029166;28;20025;-83
2022/08/19 07:33:35;;;;;;;9.02;5.35;;;;;;;26.70;42.11;95278.25;5029434;28;20040;-84
2022/08/19 07:36:01;;;;;;;6.85;5.40;;;;;;;26.79;42.07;95270.25;5028633;28;20064;-84
2022/08/19 07:38:26;;;;;;;6.32;5.25;;;;;;;26.88;40.88;95268.50;5029629;28;20025;-84
2022/08/19 07:40:51;;;;;;;7.35;5.80;;;;;;;26.96;40.63;95272.59;5029428;28;20049;-85
2022/08/19 07:43:25;;;;;;;8.13;5.20;;;;;;;27.04;40.05;95268.44;5030801;28;20032;-83
2022/08/19 07:45:52;;;;;;;11.60;4.95;;;;;;;27.05;41.15;95270.09;5032117;28;20484;-83
2022/08/19 07:48:18;;;;;;;10.30;6.10;;;;;;;27.07;40.95;95261.53;5029597;28;20072;-85
2022/08/19 07:50:43;;;;;;;6.15;5.35;;;;;;;26.94;40.26;95260.22;5029218;28;20155;-84
2022/08/19 07:53:09;;;;;;;8.38;5.55;;;;;;;27.03;39.97;95262.13;5028433;28;20028;-85
2022/08/19 07:55:34;;;;;;;8.55;5.28;;;;;;;26.86;40.54;95261.66;5029170;28;20136;-85
2022/08/19 07:58:00;;;;;;;11.90;5.70;;;;;;;26.88;40.25;95267.69;5028962;28;20076;-84
2022/08/19 08:00:25;;;;;;;9.52;6.05;;;;;;;27.15;39.97;95271.91;5029051;28;20021;-83
2022/08/19 08:02:52;;;;;;;13.27;6.07;;;;;;;27.39;39.22;95260.19;5029165;28;20463;-85
2022/08/19 08:10:45;;;;;;;9.27;5.20;;;;;;;27.59;38.42;95269.31;5027620;28;20507;-85
2022/08/19 08:13:11;;;;;;;7.00;5.30;;;;;;;27.73;38.45;95256.53;5028555;28;20133;-83
2022/08/19 08:15:38;;;;;;;10.23;5.75;;;;;;;27.67;38.20;95254.09;5028492;28;20484;-84
2022/08/19 08:18:03;;;;;;;10.43;5.35;;;;;;;27.83;37.76;95252.03;5028267;28;20045;-84
2022/08/19 08:20:29;;;;;;;6.90;5.47;;;;;;;27.98;37.93;95254.63;5026804;28;20033;-84
2022/08/19 08:25:40;;;;;;;6.00;5.18;;;;;;;28.46;37.74;95243.84;5028593;28;20060;-84
2022/08/19 08:28:07;;;;;;;8.45;5.30;;;;;;;28.57;37.39;95250.03;5028254;28;20025;-84
2022/08/19 08:30:34;;;;;;;10.85;5.05;;;;;;;28.63;36.71;95241.41;5028176;28;20424;-83
2022/08/19 08:33:00;;;;;;;7.32;5.22;;;;;;;28.65;36.97;95249.38;5028401;28;20025;-84
2022/08/19 08:35:25;;;;;;;6.40;4.80;;;;;;;28.72;36.89;95241.56;5027613;28;20029;-84
2022/08/19 08:37:53;;;;;;;7.07;5.00;;;;;;;29.04;36.67;95246.63;5028253;28;20036;-83
2022/08/19 08:40:28;;;;;;;8.57;5.50;;;;;;;29.22;36.79;95244.94;5027314;28;20032;-83
2022/08/19 08:43:18;;;;;;;8.27;5.03;;;;;;;29.26;36.36;95240.44;5028068;28;20053;-84
2022/08/19 08:45:47;;;;;;;8.00;4.82;;;;;;;28.74;36.21;95233.78;5027929;28;20025;-83
2022/08/19 08:48:37;;;;;;;9.07;5.05;;;;;;;28.87;35.93;95237.72;5010367;28;20041;-83
2022/08/19 08:51:09;;;;;;;9.13;5.57;;;;;;;28.70;35.51;95232.75;5027721;28;20492;-83
2022/08/19 08:53:35;;;;;;;;;;;;;;;28.38;36.28;95234.31;5010002;28;20025;-84
2022/08/19 08:56:02;;;;;;;11.05;4.97;;;;;;;28.59;36.03;95222.97;5042872;28;19913;-83
2022/08/19 08:58:42;;;;;;;17.50;5.53;;;;;;;28.58;35.88;95226.88;5008939;28;20404;-83
2022/08/19 09:01:11;;;;;;;4.85;4.38;;;;;;;28.84;35.21;95226.50;5026466;28;20026;-83
2022/08/19 09:03:37;;;;;;;7.38;5.05;;;;;;;29.15;35.08;95217.72;5009508;28;20033;-84
2022/08/19 09:06:17;;;;;;;7.80;4.97;;;;;;;29.42;34.16;95227.19;5027555;28;20100;-83
2022/08/19 09:09:06;;;;;;;8.75;4.70;;;;;;;29.65;33.44;95208.03;5026161;28;20029;-83
2022/08/19 09:11:50;;;;;;;7.03;4.07;;;;;;;29.84;33.14;95210.69;5026954;28;20056;-84
2022/08/19 09:14:33;;;;;;;5.93;4.10;;;;;;;29.92;33.80;95202.81;5027396;28;20099;-84
2022/08/19 09:16:59;;;;;;;9.38;4.05;;;;;;;30.09;34.64;95207.72;5027816;28;20029;-83
2022/08/19 09:19:24;;;;;;;4.85;4.00;;;;;;;30.18;34.42;95192.03;5026985;28;20487;-83
2022/08/19 09:21:50;;;;;;;8.20;3.90;;;;;;;30.20;32.56;95195.34;5027261;28;20040;-83
2022/08/19 09:24:15;;;;;;;8.75;4.30;;;;;;;29.93;32.54;95191.47;5026749;28;20041;-83
2022/08/19 09:26:43;;;;;;;7.50;4.28;;;;;;;30.09;33.81;95193.91;5027105;28;20028;-83
2022/08/19 09:29:10;;;;;;;5.15;3.90;;;;;;;30.25;33.00;95196.34;5027089;28;20420;-83
2022/08/19 09:31:35;;;;;;;4.68;3.60;;;;;;;30.25;31.29;95193.59;5026883;28;20122;-83
2022/08/19 09:34:03;;;;;;;4.90;3.78;;;;;;;30.44;30.46;95191.50;5027614;28;20428;-85
2022/08/19 09:36:30;;;;;;;4.75;3.30;;;;;;;30.28;30.41;95191.03;5026956;28;20484;-83
2022/08/19 09:38:55;;;;;;;3.97;3.22;;;;;;;30.59;28.69;95193.13;5027256;28;20030;-83
2022/08/19 09:41:22;;;;;;;9.55;3.00;;;;;;;30.76;28.98;95185.25;5026717;28;20034;-83
2022/08/19 09:43:51;;;;;;;4.40;3.40;;;;;;;30.76;27.64;95183.28;5027079;28;20091;-84
2022/08/19 09:46:17;;;;;;;4.63;3.38;;;;;;;30.80;29.50;95175.22;5027274;28;20036;-83
2022/08/19 09:48:44;;;;;;;5.18;3.10;;;;;;;30.93;28.28;95170.75;5027077;28;20033;-83
2022/08/19 09:51:16;;;;;;;3.95;2.90;;;;;;;30.83;26.77;95174.59;5027092;28;20084;-85
2022/08/19 09:53:43;;;;;;;5.45;2.90;;;;;;;30.87;27.03;95170.09;5026653;28;20092;-83
2022/08/19 09:56:09;;;;;;;3.90;2.75;;;;;;;30.74;27.09;95168.16;5027082;28;20052;-84
2022/08/19 09:58:34;;;;;;;7.20;3.30;;;;;;;30.78;26.88;95171.91;5025917;28;20026;-84
2022/08/19 10:01:00;;;;;;;4.00;3.17;;;;;;;30.84;25.96;95170.72;5026685;28;20037;-85
2022/08/19 10:03:29;;;;;;;3.67;2.80;;;;;;;30.92;26.30;95164.41;5026683;28;20060;-83
2022/08/19 10:05:54;;;;;;;4.57;2.85;;;;;;;30.71;26.41;95161.31;5026895;28;20030;-86
2022/08/19 10:08:22;;;;;;;5.72;3.30;;;;;;;30.72;26.61;95154.63;5027181;28;20025;-85
2022/08/19 10:10:48;;;;;;;6.63;2.92;;;;;;;30.71;25.97;95150.22;5026285;28;20537;-84
2022/08/19 10:13:15;;;;;;;5.40;3.00;;;;;;;30.61;26.86;95154.06;5026857;28;20030;-85
2022/08/19 10:15:41;;;;;;;4.78;3.05;;;;;;;30.59;26.67;95157.16;5026590;28;20377;-85
2022/08/19 10:18:07;;;;;;;3.90;3.45;;;;;;;30.74;27.92;95152.38;5026651;28;20029;-84
2022/08/19 10:20:32;;;;;;;3.90;3.20;;;;;;;30.57;28.67;95147.50;5026830;28;20037;-84
2022/08/19 10:22:59;;;;;;;7.45;3.50;;;;;;;30.35;28.83;95151.88;5027094;28;20049;-84
2022/08/19 10:25:26;;;;;;;4.63;3.60;;;;;;;30.37;28.37;95141.34;5027502;28;20025;-84
2022/08/19 10:27:52;;;;;;;5.35;3.40;;;;;;;30.25;28.19;95147.41;5029506;28;20029;-84
2022/08/19 10:30:18;;;;;;;5.03;3.20;;;;;;;30.06;28.68;95144.75;5028153;28;20037;-85
2022/08/19 10:32:45;;;;;;;4.45;3.47;;;;;;;30.33;28.97;95138.38;5029129;28;20026;-83
2022/08/19 10:35:11;;;;;;;6.95;3.80;;;;;;;30.75;28.43;95147.63;5028290;28;20029;-85
2022/08/19 10:37:36;;;;;;;5.57;3.65;;;;;;;30.86;28.83;95137.97;5028284;28;20105;-84
2022/08/19 10:40:05;;;;;;;4.75;4.00;;;;;;;30.82;28.00;95134.22;5028522;28;20037;-84
2022/08/19 10:42:31;;;;;;;6.35;3.30;;;;;;;30.71;27.19;95131.66;5027321;28;20519;-84
2022/08/19 10:44:57;;;;;;;4.82;3.70;;;;;;;30.76;27.57;95130.72;5025982;28;20430;-85
2022/08/19 10:47:22;;;;;;;5.43;3.78;;;;;;;30.60;27.44;95127.50;5026477;28;20040;-84
2022/08/19 10:52:33;;;;;;;7.03;3.83;;;;;;;30.70;28.26;95130.03;5026304;28;20742;-83
2022/08/19 10:57:49;;;;;;;6.00;3.85;;;;;;;31.33;28.59;95120.16;5026102;28;20503;-83
2022/08/19 11:00:15;;;;;;;6.05;3.78;;;;;;;31.31;27.40;95119.66;5026094;28;20025;-84
2022/08/19 11:02:41;;;;;;;6.78;3.90;;;;;;;31.15;27.59;95125.59;5026009;28;20408;-84
2022/08/19 11:05:10;;;;;;;5.47;3.70;;;;;;;31.22;27.43;95122.38;5026002;28;20026;-84
2022/08/19 11:07:37;;;;;;;4.28;3.67;;;;;;;31.12;27.88;95125.41;5025607;28;20026;-84
2022/08/19 11:10:03;;;;;;;5.95;3.60;;;;;;;31.27;28.68;95118.66;5025702;28;20032;-84
2022/08/19 11:12:28;;;;;;;6.32;3.70;;;;;;;31.55;27.73;95112.97;5024065;28;20029;-85
2022/08/19 11:14:54;;;;;;;7.07;3.45;;;;;;;31.54;28.16;95105.75;5026103;28;20033;-83
2022/08/19 11:17:23;;;;;;;5.95;3.58;;;;;;;31.54;27.48;95105.75;5025442;28;20036;-84
2022/08/19 11:19:49;;;;;;;7.22;4.78;;;;;;;31.73;27.64;95113.81;5026282;28;20029;-84
2022/08/19 11:22:14;;;;;;;6.88;4.30;;;;;;;31.90;26.70;95104.72;5026058;28;20018;-84
2022/08/19 11:24:39;;;;;;;7.53;3.25;;;;;;;32.04;26.61;95107.38;5026986;28;20028;-83
2022/08/19 11:27:08;;;;;;;7.53;4.95;;;;;;;32.22;27.32;95103.81;5025553;28;20025;-84
2022/08/19 11:29:34;;;;;;;7.10;4.90;;;;;;;32.29;26.87;95095.84;5027240;28;20034;-84
2022/08/19 11:32:06;;;;;;;6.53;4.30;;;;;;;32.36;28.13;95098.91;5028101;28;20041;-83
2022/08/19 11:34:32;;;;;;;5.93;4.10;;;;;;;32.43;26.26;95096.47;5026247;28;20048;-83
2022/08/19 11:36:58;;;;;;;5.95;4.03;;;;;;;32.49;27.38;95088.78;5026220;28;20462;-84
2022/08/19 11:39:24;;;;;;;7.00;5.25;;;;;;;32.61;27.33;95085.41;5025612;28;20030;-84
2022/08/19 11:41:50;;;;;;;11.15;6.18;;;;;;;32.68;27.20;95085.69;5025975;28;20030;-84
2022/08/19 11:44:15;;;;;;;6.25;4.40;;;;;;;32.66;26.63;95082.44;5026078;28;20312;-84
2022/08/19 11:46:43;;;;;;;4.93;4.38;;;;;;;32.69;26.78;95070.66;5026573;28;20029;-84
2022/08/19 11:49:09;;;;;;;7.57;5.90;;;;;;;32.79;26.17;95065.94;5028923;28;20035;-84
2022/08/19 11:51:34;;;;;;;7.93;6.43;;;;;;;32.83;26.44;95072.44;5028760;28;20026;-84